»·PEaware :: AAY89 KLAS-KRNO

AAY89 :: KLAS-KRNO

FLIGHT INFORMATION

Flight Status: Arrived
Operator:
Allegiant Air
More flights by this operator :: More flights under this callsign
Pilot: Brice B. (24277)
Aircraft: AIRBUS A319
(A319)
More flights by this aircraft type
Origin: KLAS McCarran Intl
United States
Destination: KRNO Reno/Tahoe Intl
United States
More flights between these airports :: More routes between these airports
Route: + SHEAD1 KENNO RUSME2
File this flight plan on PilotEdge
Remarks:
Altitude:
(Current/Filed)
38,000ft
Speed:
(Current/Filed)
520kts
Departed: 21-Nov-19 04:06 PM
Arrived: 21-Nov-19 05:04 PM
Distance/Time
Traveled:
300nm/0:58
Distance/Time
To Go:
Arrived

Flight Plot

Page will automatically refresh every two minutes.

Flight plan parsing failed; only flown route is shown


Map Options




Map Legend


Flown Route
Filed Route
Departure Airport
Arrival Airport
Navaid (VOR, NDB)
Fix

Horizontal Profiles

Position Reports

Time Latitude Longitude Heading Altitude Ground
Speed
21-Nov-19 15:37 36.086779 -115.153763 117 2108ft 0kts
21-Nov-19 15:38 36.086779 -115.153763 117 2108ft 0kts
21-Nov-19 15:39 36.086779 -115.153763 117 2108ft 0kts
21-Nov-19 15:40 36.086779 -115.153763 117 2108ft 0kts
21-Nov-19 15:41 36.086779 -115.153763 117 2108ft 0kts
21-Nov-19 15:42 36.086779 -115.153763 117 2108ft 0kts
21-Nov-19 15:44 36.086779 -115.153763 117 2108ft 0kts
21-Nov-19 15:45 36.086779 -115.153763 117 2108ft 0kts
21-Nov-19 15:46 36.086779 -115.153763 117 2108ft 0kts
21-Nov-19 15:47 36.086779 -115.153763 117 2108ft 0kts
21-Nov-19 15:48 36.086779 -115.153763 117 2108ft 0kts
21-Nov-19 15:49 36.086779 -115.153763 117 2108ft 0kts
21-Nov-19 15:50 36.086779 -115.153763 117 2108ft 0kts
21-Nov-19 15:51 36.086779 -115.153763 117 2108ft 0kts
21-Nov-19 15:52 36.086779 -115.153763 117 2108ft 0kts
21-Nov-19 15:53 36.086779 -115.153763 117 2108ft 0kts
21-Nov-19 15:54 36.086925 -115.154114 117 2109ft 2kts
21-Nov-19 15:55 36.087212 -115.154753 142 2110ft 2kts
21-Nov-19 15:56 36.087751 -115.154685 229 2108ft 2kts
21-Nov-19 15:57 36.087863 -115.154335 269 2107ft 0kts
21-Nov-19 15:58 36.087863 -115.154335 269 2107ft 0kts
21-Nov-19 15:59 36.087857 -115.154429 259 2107ft 2kts
21-Nov-19 16:00 36.087639 -115.156439 281 2115ft 7kts
21-Nov-19 16:01 36.090954 -115.155669 23 2105ft 20kts
21-Nov-19 16:01 36.095329 -115.153186 24 2087ft 21kts
21-Nov-19 16:03 36.098009 -115.152498 295 2079ft 0kts
21-Nov-19 16:04 36.098009 -115.152498 295 2079ft 0kts
21-Nov-19 16:04 36.098014 -115.152512 295 2079ft 1kts
21-Nov-19 16:06 36.094015 -115.156181 205 2099ft 91kts
21-Nov-19 16:06 36.061918 -115.174569 203 3472ft 170kts
21-Nov-19 16:07 36.013574 -115.203870 222 5205ft 232kts
21-Nov-19 16:09 35.972349 -115.296917 236 8270ft 284kts
21-Nov-19 16:09 35.926060 -115.356515 225 10651ft 306kts
21-Nov-19 16:10 35.885773 -115.457048 273 11822ft 377kts
21-Nov-19 16:12 35.889767 -115.616774 273 14560ft 412kts
21-Nov-19 16:12 35.891936 -115.738191 273 16694ft 424kts
21-Nov-19 16:13 35.894337 -115.886379 273 18934ft 436kts
21-Nov-19 16:14 35.938263 -116.020688 317 20920ft 437kts
21-Nov-19 16:15 36.028026 -116.123248 317 22656ft 447kts
21-Nov-19 16:16 36.120252 -116.229473 317 24417ft 451kts
21-Nov-19 16:17 36.210370 -116.333318 317 26427ft 444kts
21-Nov-19 16:18 36.299815 -116.437203 317 28200ft 438kts
21-Nov-19 16:19 36.386781 -116.538689 317 29708ft 435kts
21-Nov-19 16:20 36.474656 -116.641545 317 31073ft 430kts
21-Nov-19 16:21 36.562039 -116.740041 322 32290ft 425kts
21-Nov-19 16:22 36.659196 -116.819965 328 33225ft 423kts
21-Nov-19 16:23 36.759318 -116.896135 328 34020ft 421kts
21-Nov-19 16:24 36.858355 -116.971691 327 34786ft 416kts
21-Nov-19 16:25 36.956586 -117.046842 327 35406ft 412kts
21-Nov-19 16:26 37.054089 -117.121774 328 35763ft 412kts
21-Nov-19 16:27 37.152513 -117.197352 329 35885ft 419kts
21-Nov-19 16:28 37.251704 -117.273862 329 35992ft 419kts
21-Nov-19 16:29 37.345114 -117.359880 321 35994ft 421kts
21-Nov-19 16:30 37.433909 -117.454925 321 35984ft 420kts
21-Nov-19 16:31 37.526491 -117.544668 328 35972ft 420kts
21-Nov-19 16:32 37.624920 -117.622648 329 35983ft 419kts
21-Nov-19 16:33 37.724008 -117.701584 328 35979ft 419kts
21-Nov-19 16:34 37.822198 -117.779932 328 35964ft 420kts
21-Nov-19 16:35 37.919884 -117.857979 328 35946ft 420kts
21-Nov-19 16:36 38.018567 -117.937036 328 35950ft 419kts
21-Nov-19 16:37 38.114347 -118.014002 328 35953ft 418kts
21-Nov-19 16:38 38.212483 -118.092794 328 35953ft 417kts
21-Nov-19 16:39 38.309215 -118.171120 327 35944ft 412kts
21-Nov-19 16:40 38.400607 -118.256951 309 35690ft 404kts
21-Nov-19 16:41 38.434407 -118.395010 282 32605ft 420kts
21-Nov-19 16:42 38.448536 -118.543796 281 29190ft 429kts
21-Nov-19 16:43 38.462046 -118.693050 280 27557ft 416kts
21-Nov-19 16:44 38.475009 -118.838544 280 26552ft 412kts
21-Nov-19 16:45 38.488199 -118.987941 280 25536ft 436kts
21-Nov-19 16:46 38.504544 -119.144417 288 24528ft 446kts
21-Nov-19 16:47 38.563131 -119.282616 306 22429ft 448kts
21-Nov-19 16:48 38.632062 -119.415354 305 19636ft 443kts
21-Nov-19 16:49 38.701136 -119.549812 305 18963ft 455kts
21-Nov-19 16:50 38.762561 -119.669997 304 17482ft 372kts
21-Nov-19 16:51 38.819532 -119.764345 335 16361ft 326kts
21-Nov-19 16:52 38.906640 -119.770737 1 14960ft 313kts
21-Nov-19 16:53 38.990441 -119.770143 0 13631ft 279kts
21-Nov-19 16:54 39.066499 -119.770042 359 12984ft 273kts
21-Nov-19 16:55 39.142281 -119.769807 359 12542ft 273kts
21-Nov-19 16:56 39.215903 -119.769626 359 10700ft 262kts
21-Nov-19 16:57 39.285371 -119.769466 0 8904ft 236kts
21-Nov-19 16:58 39.347042 -119.769402 358 7583ft 199kts
21-Nov-19 16:59 39.393950 -119.769538 357 6456ft 150kts
21-Nov-19 17:00 39.435195 -119.769319 359 5632ft 154kts
21-Nov-19 17:01 39.477418 -119.769298 358 4664ft 151kts
21-Nov-19 17:02 39.507357 -119.769255 0 4413ft 49kts
21-Nov-19 17:03 39.510993 -119.771013 268 4417ft 11kts
21-Nov-19 17:04 39.507513 -119.771500 183 4415ft 7kts
21-Nov-19 17:05 39.507242 -119.772318 260 4415ft 0kts

Navigation Log

Ident Type
Flight plan parsing failed, navigation log unavailable